createdAt,value
2023-10-20T00:02:17.527Z,53.85
2023-10-20T00:05:29.728Z,56.23
2023-10-20T00:08:42.164Z,48.40
2023-10-20T00:11:54.227Z,51.70
2023-10-20T00:15:06.493Z,53.60
2023-10-20T00:18:19.753Z,55.40
2023-10-20T00:33:30.596Z,48.28
2023-10-20T00:36:42.950Z,46.13
2023-10-20T00:43:44.589Z,49.00
2023-10-20T00:51:13.100Z,75.40
2023-10-20T00:54:25.840Z,55.85
2023-10-20T00:57:38.481Z,58.70
2023-10-20T01:00:50.843Z,52.88
2023-10-20T01:04:03.271Z,50.93
2023-10-20T01:07:16.437Z,52.18
2023-10-20T01:10:29.907Z,55.35
2023-10-20T01:13:42.114Z,50.43
2023-10-20T01:16:54.882Z,51.45
2023-10-20T01:20:11.198Z,52.68
2023-10-20T01:23:23.574Z,50.73
2023-10-20T01:26:36.011Z,54.30
2023-10-20T01:29:48.714Z,52.58
2023-10-20T01:33:01.031Z,54.33
2023-10-20T01:36:13.674Z,54.25
2023-10-20T01:39:26.768Z,49.28
2023-10-20T01:42:39.000Z,45.98
2023-10-20T01:45:51.040Z,47.15
2023-10-20T01:49:03.116Z,47.35
2023-10-20T01:52:15.085Z,48.73
2023-10-20T01:55:27.259Z,47.83
2023-10-20T01:58:39.265Z,45.75
2023-10-20T02:05:33.019Z,50.43
2023-10-20T02:08:45.242Z,52.28
2023-10-20T02:31:22.914Z,47.70
2023-10-20T02:34:35.460Z,47.63
2023-10-20T02:37:48.648Z,46.33
2023-10-20T02:41:03.788Z,44.88
2023-10-20T02:44:18.515Z,44.68
2023-10-20T02:47:30.937Z,40.45
2023-10-20T02:50:43.387Z,42.50
2023-10-20T02:53:55.815Z,40.08
2023-10-20T02:57:11.100Z,41.28
2023-10-20T03:00:24.600Z,40.10
2023-10-20T03:03:36.731Z,41.85
2023-10-20T03:06:49.376Z,42.43
2023-10-20T03:10:02.397Z,46.18
2023-10-20T03:13:14.813Z,42.98
2023-10-20T03:16:26.970Z,54.35
2023-10-20T03:19:39.033Z,43.28
2023-10-20T03:22:51.097Z,44.20
2023-10-20T03:26:27.210Z,45.08
2023-10-20T03:29:44.524Z,45.73
2023-10-20T03:32:56.921Z,40.15
2023-10-20T03:36:10.761Z,41.35
2023-10-20T03:39:25.449Z,43.93
2023-10-20T03:42:38.006Z,43.20
2023-10-20T03:45:53.972Z,44.40
2023-10-20T03:49:06.268Z,42.58
2023-10-20T03:52:20.121Z,41.40
2023-10-20T03:55:32.182Z,43.33
2023-10-20T03:58:46.195Z,43.75
2023-10-20T04:01:58.225Z,47.85
2023-10-20T04:05:16.219Z,57.83
2023-10-20T04:08:29.632Z,54.95
2023-10-20T04:11:43.528Z,44.78
2023-10-20T04:14:55.611Z,47.15
2023-10-20T04:18:08.391Z,44.48
2023-10-20T04:21:20.662Z,44.23
2023-10-20T04:24:33.739Z,39.70
2023-10-20T04:27:51.313Z,40.50
2023-10-20T04:31:17.912Z,36.95
2023-10-20T04:34:44.924Z,48.57
2023-10-20T04:38:12.013Z,40.18
2023-10-20T04:41:39.395Z,41.60
2023-10-20T04:44:56.367Z,43.05
2023-10-20T04:48:27.620Z,42.60
2023-10-20T04:51:51.878Z,39.48
2023-10-20T04:55:06.200Z,39.75
2023-10-20T04:58:20.903Z,33.53
2023-10-20T05:01:35.004Z,42.70
2023-10-20T05:04:49.266Z,37.30
2023-10-20T05:08:05.097Z,38.05
2023-10-20T05:11:18.647Z,38.85
2023-10-20T05:14:34.909Z,39.70
2023-10-20T05:17:47.844Z,41.43
2023-10-20T05:21:00.159Z,42.23
2023-10-20T05:24:13.813Z,36.78
2023-10-20T05:28:32.543Z,36.23
2023-10-20T05:35:42.637Z,62.98
2023-10-20T05:37:51.685Z,37.38
2023-10-20T05:39:10.674Z,48.55
2023-10-20T13:18:18.295Z,23.15
2023-10-20T13:21:30.866Z,19.55
2023-10-20T13:24:43.418Z,19.03
2023-10-20T13:27:55.722Z,17.40
2023-10-20T13:31:17.317Z,20.00
2023-10-20T13:34:30.079Z,14.13
2023-10-20T13:37:45.400Z,23.28
2023-10-20T13:40:57.759Z,17.48
2023-10-20T13:44:11.656Z,21.58
2023-10-20T13:47:23.943Z,16.68
2023-10-20T13:50:36.250Z,15.48
2023-10-20T13:53:48.390Z,18.33
2023-10-20T13:57:00.534Z,17.55
2023-10-20T14:00:16.330Z,15.05
2023-10-20T14:03:28.864Z,17.90
2023-10-20T14:06:41.509Z,15.15
2023-10-20T14:09:53.771Z,24.20
2023-10-20T14:13:06.656Z,17.73
2023-10-20T14:16:19.022Z,17.00
2023-10-20T14:19:31.514Z,15.33
2023-10-20T14:22:43.978Z,17.20
2023-10-20T14:26:03.172Z,21.63
2023-10-20T14:29:17.291Z,20.03
2023-10-20T14:32:29.635Z,17.15
2023-10-20T14:35:45.691Z,12.58
2023-10-20T14:38:58.308Z,16.53
2023-10-20T14:42:13.412Z,17.60
2023-10-20T14:45:26.018Z,13.90
2023-10-20T14:48:39.512Z,14.20
2023-10-20T14:51:52.104Z,16.58
2023-10-20T14:55:04.906Z,21.70
2023-10-20T14:58:17.189Z,21.98
2023-10-20T15:01:29.504Z,17.35
2023-10-20T15:04:42.879Z,17.35
2023-10-20T15:07:56.943Z,21.33
2023-10-20T15:11:14.513Z,23.40
2023-10-20T15:14:27.176Z,18.73
2023-10-20T15:17:39.574Z,18.33
2023-10-20T15:20:51.822Z,21.08
2023-10-20T15:24:04.224Z,14.60
2023-10-20T15:27:19.443Z,18.98
2023-10-20T15:30:32.198Z,18.70
2023-10-20T15:33:44.802Z,16.10
2023-10-20T15:36:58.301Z,17.63
2023-10-20T15:40:19.081Z,22.15
2023-10-20T15:43:31.061Z,21.10
2023-10-20T15:46:45.645Z,37.23
2023-10-20T15:49:59.431Z,24.20
2023-10-20T15:53:16.218Z,19.75
2023-10-20T15:56:29.266Z,24.35
2023-10-20T15:59:41.658Z,24.20
2023-10-20T16:02:53.848Z,20.23
2023-10-20T16:06:08.515Z,17.40
2023-10-20T16:09:23.690Z,27.38
2023-10-20T16:18:53.161Z,24.73
2023-10-20T16:32:33.173Z,51.35
2023-10-20T16:36:14.398Z,30.88
2023-10-20T16:42:49.247Z,42.23
2023-10-20T16:46:13.781Z,32.63
2023-10-20T16:49:37.833Z,31.60
2023-10-20T16:52:53.405Z,29.25
2023-10-20T16:56:10.185Z,34.68
2023-10-20T16:59:30.305Z,29.88
2023-10-20T17:02:49.860Z,30.05
2023-10-20T17:06:14.340Z,24.65
2023-10-20T17:09:40.408Z,33.08
2023-10-20T17:12:53.930Z,25.08
2023-10-20T17:16:11.936Z,29.05
2023-10-20T17:20:32.121Z,26.98
2023-10-20T17:27:26.461Z,27.30
2023-10-20T17:30:42.872Z,28.53
2023-10-20T17:33:56.133Z,28.15
2023-10-20T17:37:09.911Z,19.28
2023-10-20T17:40:23.424Z,28.98
2023-10-20T17:43:37.727Z,21.48
2023-10-20T17:46:51.596Z,23.75
2023-10-20T17:50:06.258Z,25.18
2023-10-20T17:53:19.163Z,28.70
2023-10-20T17:56:33.260Z,19.63
2023-10-20T17:59:45.927Z,26.43
2023-10-20T18:02:59.142Z,24.98
2023-10-20T18:06:20.581Z,22.08
2023-10-20T18:09:35.162Z,25.83
2023-10-20T18:12:48.195Z,39.78
2023-10-20T18:16:01.042Z,32.83
2023-10-20T18:19:16.210Z,32.58
2023-10-20T18:22:30.547Z,41.85
2023-10-20T18:25:43.172Z,31.43
2023-10-20T19:24:05.849Z,27.93
2023-10-20T19:27:20.316Z,19.13
2023-10-20T19:30:33.222Z,29.08
2023-10-20T19:33:52.877Z,32.18
2023-10-20T19:37:05.313Z,21.98
2023-10-20T19:40:20.165Z,21.98
2023-10-20T21:13:08.791Z,25.25
2023-10-20T21:31:55.848Z,26.05
2023-10-20T21:58:46.579Z,34.48
2023-10-20T22:03:25.675Z,28.95
2023-10-20T22:07:19.583Z,26.50
